Time;durP1;ratioP1;P1;durP2;ratioP2;P2;SDS_P1;SDS_P2;PMS_P1;PMS_P2;Temp;Humidity;BMP_temperature;BMP_pressure;BME280_temperature;BME280_humidity;BME280_pressure;Samples;Min_cycle;Max_cycle;Signal;HPM_P1;HPM_P2
2021/04/24 00:01:44;;;;;;;9.67;2.63;;;;;;;;;;5068365;28;20106;-68
2021/04/24 00:04:09;;;;;;;8.17;2.67;;;;;;;;;;5064308;28;20357;-68
2021/04/24 00:06:34;;;;;;;8.93;2.60;;;;;;;;;;5071188;28;20313;-68
2021/04/24 00:09:00;;;;;;;9.30;3.17;;;;;;;;;;5074751;28;20461;-68
2021/04/24 00:11:26;;;;;;;8.13;2.70;;;;;;;;;;5068857;28;20117;-68
2021/04/24 00:13:52;;;;;;;6.23;2.27;;;;;;;;;;5072184;28;20340;-68
2021/04/24 00:16:18;;;;;;;8.23;2.73;;;;;;;;;;5068158;28;20278;-68
2021/04/24 00:18:43;;;;;;;7.27;2.80;;;;;;;;;;5072206;28;20099;-68
2021/04/24 00:21:08;;;;;;;9.10;2.83;;;;;;;;;;5071263;28;20059;-68
2021/04/24 00:23:34;;;;;;;6.97;2.37;;;;;;;;;;5068114;28;20060;-68
2021/04/24 00:25:59;;;;;;;11.03;3.00;;;;;;;;;;5070064;28;20028;-68
2021/04/24 00:28:24;;;;;;;11.57;3.17;;;;;;;;;;5060963;28;20029;-68
2021/04/24 00:30:50;;;;;;;16.67;3.03;;;;;;;;;;5070263;28;20050;-68
2021/04/24 00:33:15;;;;;;;13.03;3.07;;;;;;;;;;5072778;28;20032;-68
2021/04/24 00:35:40;;;;;;;7.13;2.43;;;;;;;;;;5073336;28;20583;-68
2021/04/24 00:38:06;;;;;;;12.03;3.47;;;;;;;;;;5064678;28;20036;-68
2021/04/24 00:40:34;;;;;;;10.80;2.50;;;;;;;;;;5073179;28;20032;-68
2021/04/24 00:42:59;;;;;;;7.83;2.63;;;;;;;;;;5074023;28;20029;-68
2021/04/24 00:45:25;;;;;;;10.03;2.80;;;;;;;;;;5065326;28;20275;-68
2021/04/24 00:47:50;;;;;;;11.60;2.67;;;;;;;;;;5073032;28;20032;-68
2021/04/24 00:50:18;;;;;;;10.43;2.63;;;;;;;;;;5065174;28;20035;-68
2021/04/24 00:52:43;;;;;;;7.03;2.63;;;;;;;;;;5071973;28;20032;-68
2021/04/24 00:55:09;;;;;;;15.53;3.17;;;;;;;;;;5071642;28;20332;-68
2021/04/24 00:57:34;;;;;;;11.07;3.53;;;;;;;;;;5072612;28;20055;-68
2021/04/24 01:00:00;;;;;;;11.10;3.17;;;;;;;;;;5063236;28;20024;-68
2021/04/24 01:02:25;;;;;;;8.30;2.97;;;;;;;;;;5092310;22;20056;-65
2021/04/24 01:04:51;;;;;;;9.13;2.80;;;;;;;;;;5069046;28;20024;-65
2021/04/24 01:07:16;;;;;;;11.73;3.27;;;;;;;;;;5069849;28;20479;-65
2021/04/24 01:09:42;;;;;;;8.13;2.83;;;;;;;;;;5070863;28;20099;-65
2021/04/24 01:12:07;;;;;;;10.10;3.10;;;;;;;;;;5067870;28;20383;-65
2021/04/24 01:14:32;;;;;;;9.10;2.83;;;;;;;;;;5071690;28;20516;-65
2021/04/24 01:16:58;;;;;;;7.47;2.73;;;;;;;;;;5068903;28;20059;-65
2021/04/24 01:19:24;;;;;;;10.53;3.37;;;;;;;;;;5071975;28;20435;-65
2021/04/24 01:21:50;;;;;;;13.00;2.93;;;;;;;;;;5063808;28;20028;-65
2021/04/24 01:24:16;;;;;;;10.00;3.17;;;;;;;;;;5070035;28;20017;-65
2021/04/24 01:26:41;;;;;;;9.67;3.20;;;;;;;;;;5071780;28;20738;-66
2021/04/24 01:29:07;;;;;;;14.00;3.27;;;;;;;;;;5068699;28;20032;-65
2021/04/24 01:31:33;;;;;;;10.50;2.63;;;;;;;;;;5063590;28;20033;-65
2021/04/24 01:33:58;;;;;;;12.80;2.90;;;;;;;;;;5069838;28;20368;-65
2021/04/24 01:36:24;;;;;;;11.70;3.07;;;;;;;;;;5066289;28;20274;-65
2021/04/24 01:38:49;;;;;;;10.33;3.00;;;;;;;;;;5072141;28;20139;-65
2021/04/24 01:41:14;;;;;;;10.37;3.20;;;;;;;;;;5072226;28;20024;-65
2021/04/24 01:43:39;;;;;;;10.40;2.87;;;;;;;;;;5071651;28;20031;-65
2021/04/24 01:46:05;;;;;;;12.20;3.40;;;;;;;;;;5067453;28;20105;-65
2021/04/24 01:48:30;;;;;;;11.07;3.90;;;;;;;;;;5072239;28;20025;-65
2021/04/24 01:50:55;;;;;;;10.47;3.17;;;;;;;;;;5067166;28;20039;-65
2021/04/24 01:53:22;;;;;;;14.83;3.53;;;;;;;;;;5070055;28;20480;-65
2021/04/24 01:55:48;;;;;;;9.13;3.50;;;;;;;;;;5066010;28;20035;-65
2021/04/24 01:58:15;;;;;;;13.07;3.63;;;;;;;;;;5069506;28;20369;-66
2021/04/24 02:00:42;;;;;;;8.83;3.73;;;;;;;;;;5069120;28;20047;-65
2021/04/24 02:03:10;;;;;;;16.70;3.90;;;;;;;;;;5070397;28;20324;-65
2021/04/24 02:05:35;;;;;;;11.67;3.20;;;;;;;;;;5064439;28;20337;-65
2021/04/24 02:08:04;;;;;;;12.97;3.97;;;;;;;;;;5069362;28;20270;-65
2021/04/24 02:10:29;;;;;;;14.43;3.60;;;;;;;;;;5070804;28;20032;-65
2021/04/24 02:12:59;;;;;;;8.97;3.17;;;;;;;;;;5074678;28;20279;-65
2021/04/24 02:15:24;;;;;;;10.20;3.67;;;;;;;;;;5068527;28;20031;-65
2021/04/24 02:17:49;;;;;;;14.43;2.97;;;;;;;;;;5068453;28;20376;-65
2021/04/24 02:20:15;;;;;;;12.13;3.90;;;;;;;;;;5069759;28;20029;-65
2021/04/24 02:22:41;;;;;;;10.87;3.80;;;;;;;;;;5069870;28;20465;-65
2021/04/24 02:25:07;;;;;;;16.30;3.40;;;;;;;;;;5068331;28;20032;-65
2021/04/24 02:27:33;;;;;;;13.70;3.47;;;;;;;;;;5068491;28;20278;-65
2021/04/24 02:29:58;;;;;;;12.13;3.47;;;;;;;;;;5068501;28;20062;-65
2021/04/24 02:32:29;;;;;;;18.80;5.00;;;;;;;;;;5071561;28;20060;-65
2021/04/24 02:34:54;;;;;;;16.10;4.03;;;;;;;;;;5070958;28;20590;-65
2021/04/24 02:37:20;;;;;;;13.67;3.70;;;;;;;;;;5066877;28;20365;-65
2021/04/24 02:39:46;;;;;;;18.60;4.70;;;;;;;;;;5068492;28;20109;-65
2021/04/24 02:42:14;;;;;;;13.73;4.57;;;;;;;;;;5069569;28;20359;-65
2021/04/24 02:44:39;;;;;;;12.10;3.30;;;;;;;;;;5070580;28;20332;-65
2021/04/24 02:47:05;;;;;;;13.37;3.97;;;;;;;;;;5070505;28;20282;-65
2021/04/24 02:49:30;;;;;;;20.33;4.30;;;;;;;;;;5066972;28;20103;-65
2021/04/24 02:51:56;;;;;;;12.57;3.50;;;;;;;;;;5062261;28;20036;-65
2021/04/24 02:54:22;;;;;;;14.37;3.93;;;;;;;;;;5069699;28;20082;-65
2021/04/24 02:56:48;;;;;;;14.23;4.03;;;;;;;;;;5066575;28;20060;-65
2021/04/24 02:59:14;;;;;;;13.27;4.10;;;;;;;;;;5069253;28;20325;-66
2021/04/24 03:01:39;;;;;;;16.03;4.00;;;;;;;;;;5065338;28;20025;-66
2021/04/24 03:04:05;;;;;;;12.97;3.93;;;;;;;;;;5068882;28;20055;-66
2021/04/24 03:06:30;;;;;;;14.10;3.77;;;;;;;;;;5067693;28;20361;-66
2021/04/24 03:08:55;;;;;;;13.70;3.57;;;;;;;;;;5070744;28;20238;-66
2021/04/24 03:11:20;;;;;;;12.37;3.90;;;;;;;;;;5064951;28;20028;-66
2021/04/24 03:13:46;;;;;;;15.73;4.03;;;;;;;;;;5069985;28;20404;-66
2021/04/24 03:16:11;;;;;;;14.97;3.77;;;;;;;;;;5066691;28;20070;-66
2021/04/24 03:18:37;;;;;;;12.60;3.60;;;;;;;;;;5067619;28;20107;-66
2021/04/24 03:21:02;;;;;;;16.00;4.50;;;;;;;;;;5067238;28;20029;-66
2021/04/24 03:23:27;;;;;;;12.43;3.67;;;;;;;;;;5053189;28;20020;-66
2021/04/24 03:25:52;;;;;;;12.80;3.67;;;;;;;;;;5068787;28;20112;-66
2021/04/24 03:28:18;;;;;;;15.47;3.63;;;;;;;;;;5070646;28;20052;-66
2021/04/24 03:30:43;;;;;;;17.83;3.73;;;;;;;;;;5068708;28;20381;-66
2021/04/24 03:33:08;;;;;;;10.40;3.20;;;;;;;;;;5069309;28;20036;-66
2021/04/24 03:35:33;;;;;;;25.17;4.70;;;;;;;;;;5064268;28;20448;-66
2021/04/24 03:37:59;;;;;;;11.20;3.50;;;;;;;;;;5070300;28;20028;-66
2021/04/24 03:40:24;;;;;;;15.10;4.47;;;;;;;;;;5068136;28;20028;-66
2021/04/24 03:42:49;;;;;;;14.43;3.67;;;;;;;;;;5068358;28;20412;-66
2021/04/24 03:45:19;;;;;;;14.37;3.50;;;;;;;;;;5067292;28;20177;-66
2021/04/24 03:47:48;;;;;;;13.83;3.90;;;;;;;;;;5069739;28;20511;-66
2021/04/24 03:50:14;;;;;;;23.73;4.87;;;;;;;;;;5067330;28;20287;-66
2021/04/24 03:52:39;;;;;;;22.20;4.67;;;;;;;;;;5069625;28;20289;-66
2021/04/24 03:55:05;;;;;;;11.03;3.90;;;;;;;;;;5066636;28;20028;-66
2021/04/24 03:57:30;;;;;;;16.33;3.90;;;;;;;;;;5065150;28;20404;-66
2021/04/24 03:59:57;;;;;;;11.43;3.80;;;;;;;;;;5067241;28;20054;-66
2021/04/24 04:02:22;;;;;;;13.50;4.50;;;;;;;;;;5067702;28;20554;-66
2021/04/24 04:04:47;;;;;;;18.53;4.37;;;;;;;;;;5066839;28;20267;-66
2021/04/24 04:07:13;;;;;;;18.60;4.87;;;;;;;;;;5069133;28;20033;-66
2021/04/24 04:09:38;;;;;;;16.00;4.00;;;;;;;;;;5071154;28;20085;-66
2021/04/24 04:12:03;;;;;;;16.90;4.30;;;;;;;;;;5071106;28;20083;-66
2021/04/24 04:14:29;;;;;;;12.37;3.53;;;;;;;;;;5069860;28;20032;-66
2021/04/24 04:16:54;;;;;;;19.53;4.83;;;;;;;;;;5068479;28;20036;-66
2021/04/24 04:19:19;;;;;;;16.93;4.40;;;;;;;;;;5070805;28;20024;-66
2021/04/24 04:21:44;;;;;;;14.87;3.90;;;;;;;;;;5070955;28;20040;-66
2021/04/24 04:24:10;;;;;;;13.27;4.17;;;;;;;;;;5073596;28;20135;-66
2021/04/24 04:26:35;;;;;;;14.43;3.93;;;;;;;;;;5071036;28;20369;-66
2021/04/24 04:29:00;;;;;;;14.73;4.20;;;;;;;;;;5072497;28;20028;-66
2021/04/24 04:31:25;;;;;;;17.47;4.27;;;;;;;;;;5071677;28;20041;-66
2021/04/24 04:33:51;;;;;;;13.23;4.27;;;;;;;;;;5073003;28;20032;-66
2021/04/24 04:36:16;;;;;;;14.80;4.77;;;;;;;;;;5071556;28;20086;-66
2021/04/24 04:38:41;;;;;;;13.70;3.90;;;;;;;;;;5053809;28;20024;-66
2021/04/24 04:41:08;;;;;;;14.93;4.20;;;;;;;;;;5071021;28;20400;-66
2021/04/24 04:43:33;;;;;;;14.80;4.30;;;;;;;;;;5070605;28;20032;-66
2021/04/24 04:45:58;;;;;;;17.77;4.47;;;;;;;;;;5069787;28;20321;-66
2021/04/24 04:48:24;;;;;;;13.57;4.43;;;;;;;;;;5072315;28;20050;-66
2021/04/24 04:50:49;;;;;;;14.57;4.17;;;;;;;;;;5072661;28;20035;-66
2021/04/24 04:53:14;;;;;;;13.37;4.53;;;;;;;;;;5072424;28;20056;-66
2021/04/24 04:55:39;;;;;;;19.80;4.83;;;;;;;;;;5068643;28;20043;-66
2021/04/24 04:58:05;;;;;;;14.17;3.77;;;;;;;;;;5068792;28;20032;-66
2021/04/24 05:00:30;;;;;;;13.07;3.50;;;;;;;;;;5070546;28;20124;-66
2021/04/24 05:02:56;;;;;;;13.20;3.63;;;;;;;;;;5071641;28;20690;-67
2021/04/24 05:05:21;;;;;;;10.33;2.90;;;;;;;;;;5070339;28;20475;-66
2021/04/24 05:07:49;;;;;;;8.20;3.07;;;;;;;;;;5072442;28;20733;-66
2021/04/24 05:10:14;;;;;;;9.53;3.00;;;;;;;;;;5068070;28;20116;-66
2021/04/24 05:12:40;;;;;;;9.60;2.93;;;;;;;;;;5072932;28;20354;-66
2021/04/24 05:15:06;;;;;;;7.80;2.83;;;;;;;;;;5066451;28;20104;-67
2021/04/24 05:17:31;;;;;;;8.10;3.13;;;;;;;;;;5068725;28;20048;-67
2021/04/24 05:19:56;;;;;;;8.30;2.37;;;;;;;;;;5067387;28;20507;-67
2021/04/24 05:22:21;;;;;;;9.73;3.50;;;;;;;;;;5071488;28;20071;-67
2021/04/24 05:24:47;;;;;;;9.33;2.90;;;;;;;;;;5073731;28;20479;-67
2021/04/24 05:27:12;;;;;;;9.83;3.10;;;;;;;;;;5061688;28;20111;-67
2021/04/24 05:29:37;;;;;;;8.27;2.77;;;;;;;;;;5060966;28;20290;-67
2021/04/24 05:32:03;;;;;;;8.87;3.13;;;;;;;;;;5068662;28;20032;-67
2021/04/24 05:34:29;;;;;;;9.63;2.80;;;;;;;;;;5069370;28;20051;-68
2021/04/24 05:36:54;;;;;;;9.33;3.43;;;;;;;;;;5065621;28;20028;-68
2021/04/24 05:39:20;;;;;;;6.23;2.47;;;;;;;;;;5063584;28;20029;-68
2021/04/24 05:41:45;;;;;;;10.00;2.70;;;;;;;;;;5062869;28;20025;-66
2021/04/24 05:44:10;;;;;;;10.03;2.73;;;;;;;;;;5057370;28;20256;-68
2021/04/24 05:46:35;;;;;;;7.20;2.63;;;;;;;;;;5057745;28;20154;-69
2021/04/24 05:49:01;;;;;;;8.07;2.63;;;;;;;;;;5055569;28;20454;-69
2021/04/24 05:51:26;;;;;;;9.17;2.57;;;;;;;;;;5065713;28;20032;-69
2021/04/24 05:53:52;;;;;;;9.47;2.63;;;;;;;;;;5066423;28;20043;-69
2021/04/24 05:56:18;;;;;;;8.47;2.70;;;;;;;;;;5066050;28;20029;-67
2021/04/24 05:58:44;;;;;;;7.97;2.23;;;;;;;;;;5057895;28;20016;-69
2021/04/24 06:01:10;;;;;;;9.07;2.40;;;;;;;;;;5058335;28;20082;-69
2021/04/24 06:03:35;;;;;;;9.90;2.67;;;;;;;;;;5054234;28;20112;-69
2021/04/24 06:06:01;;;;;;;8.87;2.30;;;;;;;;;;5054348;28;20051;-69
2021/04/24 06:08:26;;;;;;;10.53;2.70;;;;;;;;;;5057557;28;20108;-69
2021/04/24 06:10:51;;;;;;;7.77;2.57;;;;;;;;;;5057396;28;20036;-69
2021/04/24 06:13:16;;;;;;;5.77;1.93;;;;;;;;;;5053711;28;20100;-69
2021/04/24 06:15:42;;;;;;;6.33;2.20;;;;;;;;;;5064918;28;20392;-67
2021/04/24 06:18:07;;;;;;;6.73;2.33;;;;;;;;;;5060916;28;20033;-67
2021/04/24 06:20:33;;;;;;;6.07;2.37;;;;;;;;;;5058210;28;20037;-67
2021/04/24 06:22:58;;;;;;;8.30;2.70;;;;;;;;;;5057402;28;20048;-67
2021/04/24 06:25:24;;;;;;;8.63;2.27;;;;;;;;;;5056547;28;20108;-67
2021/04/24 06:27:49;;;;;;;5.77;2.10;;;;;;;;;;5055090;28;20462;-67
2021/04/24 06:30:15;;;;;;;5.27;1.97;;;;;;;;;;5052939;28;20033;-67
2021/04/24 06:32:41;;;;;;;6.10;2.30;;;;;;;;;;5055463;28;20519;-67
2021/04/24 06:35:07;;;;;;;6.07;2.10;;;;;;;;;;5062793;28;20104;-67
2021/04/24 06:37:32;;;;;;;6.00;1.70;;;;;;;;;;5064915;28;20021;-67
2021/04/24 06:39:58;;;;;;;7.60;2.70;;;;;;;;;;5054671;28;20179;-67
2021/04/24 06:42:23;;;;;;;8.80;2.20;;;;;;;;;;5053620;28;20028;-66
2021/04/24 06:44:49;;;;;;;8.47;2.40;;;;;;;;;;5052109;28;20021;-66
2021/04/24 06:47:14;;;;;;;7.90;2.03;;;;;;;;;;5055512;28;20140;-66
2021/04/24 06:49:40;;;;;;;8.37;2.03;;;;;;;;;;5057003;28;20020;-66
2021/04/24 06:52:05;;;;;;;8.07;2.83;;;;;;;;;;5054036;28;20032;-66
2021/04/24 06:54:31;;;;;;;10.23;1.80;;;;;;;;;;5055613;28;20031;-66
2021/04/24 06:56:57;;;;;;;7.57;2.17;;;;;;;;;;5051839;28;20039;-65
2021/04/24 06:59:23;;;;;;;4.93;2.13;;;;;;;;;;5053176;28;20090;-66
2021/04/24 07:01:49;;;;;;;6.63;2.10;;;;;;;;;;5055710;28;20087;-66
2021/04/24 07:04:14;;;;;;;9.53;2.10;;;;;;;;;;5063411;28;20134;-65
2021/04/24 07:06:39;;;;;;;8.07;1.83;;;;;;;;;;5055637;28;20039;-66
2021/04/24 07:09:05;;;;;;;8.87;1.97;;;;;;;;;;5054932;28;20018;-65
2021/04/24 07:11:30;;;;;;;8.30;2.10;;;;;;;;;;5057195;28;20385;-66
2021/04/24 07:13:55;;;;;;;7.60;2.13;;;;;;;;;;5055738;28;20021;-66
2021/04/24 07:16:21;;;;;;;8.73;2.17;;;;;;;;;;5055404;28;20025;-66
2021/04/24 07:18:46;;;;;;;5.77;1.83;;;;;;;;;;5055695;28;20354;-66
2021/04/24 07:21:11;;;;;;;7.03;2.20;;;;;;;;;;5050642;28;20063;-66
2021/04/24 07:23:40;;;;;;;5.93;2.03;;;;;;;;;;5056443;28;20139;-66
2021/04/24 07:26:06;;;;;;;7.73;1.93;;;;;;;;;;5055111;28;20021;-66
2021/04/24 07:28:31;;;;;;;5.47;1.77;;;;;;;;;;5054369;28;20020;-67
2021/04/24 07:30:57;;;;;;;5.00;1.80;;;;;;;;;;5057106;28;20017;-67
2021/04/24 07:33:23;;;;;;;6.80;1.90;;;;;;;;;;5063651;28;20165;-69
2021/04/24 07:35:49;;;;;;;6.60;1.87;;;;;;;;;;5062716;28;20021;-69
2021/04/24 07:38:14;;;;;;;5.40;1.80;;;;;;;;;;5066429;28;20024;-69
2021/04/24 07:40:39;;;;;;;5.33;1.83;;;;;;;;;;5064242;28;20029;-69
2021/04/24 07:43:05;;;;;;;5.40;2.10;;;;;;;;;;5061347;28;20037;-69
2021/04/24 07:45:30;;;;;;;9.07;2.10;;;;;;;;;;5071291;28;20025;-69
2021/04/24 07:47:55;;;;;;;4.80;1.80;;;;;;;;;;5075520;28;20024;-68
2021/04/24 07:50:21;;;;;;;8.17;2.10;;;;;;;;;;5071315;28;20481;-68
2021/04/24 07:52:46;;;;;;;4.70;1.90;;;;;;;;;;5074973;28;20090;-68
2021/04/24 07:55:12;;;;;;;8.03;2.30;;;;;;;;;;5072201;28;20348;-68
2021/04/24 07:57:37;;;;;;;4.83;1.90;;;;;;;;;;5069710;28;20370;-69
2021/04/24 08:00:07;;;;;;;8.93;2.13;;;;;;;;;;5073378;28;20024;-69
2021/04/24 08:02:32;;;;;;;10.70;2.27;;;;;;;;;;5068586;28;20563;-69
2021/04/24 08:04:57;;;;;;;6.57;2.43;;;;;;;;;;5074392;28;20100;-69
2021/04/24 08:07:23;;;;;;;6.40;2.20;;;;;;;;;;5069050;28;20136;-69
2021/04/24 08:09:48;;;;;;;7.60;2.20;;;;;;;;;;5075005;28;20064;-69
2021/04/24 08:12:13;;;;;;;7.17;2.10;;;;;;;;;;5069452;28;20036;-70
2021/04/24 08:14:39;;;;;;;7.78;2.33;;;;;;;;;;5073683;28;20507;-69
2021/04/24 08:17:04;;;;;;;8.40;2.00;;;;;;;;;;5074505;28;20057;-69
2021/04/24 08:19:29;;;;;;;8.18;2.30;;;;;;;;;;5074770;28;20105;-69
2021/04/24 08:21:55;;;;;;;4.30;1.67;;;;;;;;;;5071656;28;20497;-69
2021/04/24 08:24:21;;;;;;;4.78;1.88;;;;;;;;;;5074407;28;20048;-69
2021/04/24 08:26:46;;;;;;;5.60;2.13;;;;;;;;;;5073901;28;20121;-70
2021/04/24 08:29:11;;;;;;;6.40;2.03;;;;;;;;;;5074119;28;20028;-69
2021/04/24 08:31:36;;;;;;;5.68;1.70;;;;;;;;;;5073622;28;20020;-70
2021/04/24 08:34:03;;;;;;;4.97;1.85;;;;;;;;;;5073910;28;20025;-69
2021/04/24 08:36:28;;;;;;;9.93;2.35;;;;;;;;;;5071353;28;20025;-70
2021/04/24 08:38:53;;;;;;;6.80;2.25;;;;;;;;;;5074538;28;20370;-70
2021/04/24 08:41:19;;;;;;;6.82;1.80;;;;;;;;;;5070370;28;20440;-69
2021/04/24 08:43:44;;;;;;;5.88;1.75;;;;;;;;;;5073814;28;20482;-69
2021/04/24 08:46:14;;;;;;;7.43;1.73;;;;;;;;;;5063440;28;20021;-69
2021/04/24 08:48:39;;;;;;;23.00;2.70;;;;;;;;;;5074335;28;20044;-69
2021/04/24 08:51:04;;;;;;;7.20;2.05;;;;;;;;;;5070167;28;20062;-70
2021/04/24 08:53:30;;;;;;;8.75;1.80;;;;;;;;;;5073192;28;20361;-70
2021/04/24 08:55:55;;;;;;;6.30;2.10;;;;;;;;;;5064901;28;20450;-69
2021/04/24 08:58:20;;;;;;;4.50;1.67;;;;;;;;;;5073205;28;20029;-69
2021/04/24 09:00:47;;;;;;;4.85;1.45;;;;;;;;;;5072171;28;20028;-69
2021/04/24 09:03:15;;;;;;;8.93;1.60;;;;;;;;;;5071389;28;20602;-69
2021/04/24 09:05:41;;;;;;;4.65;1.63;;;;;;;;;;5067239;28;20381;-69
2021/04/24 09:08:07;;;;;;;5.63;1.95;;;;;;;;;;5072876;28;20016;-69
2021/04/24 09:10:38;;;;;;;4.18;1.52;;;;;;;;;;5068410;28;20017;-69
2021/04/24 09:13:04;;;;;;;8.20;1.90;;;;;;;;;;5070783;28;20020;-69
2021/04/24 09:15:29;;;;;;;4.60;1.27;;;;;;;;;;5069425;28;20028;-69
2021/04/24 09:17:54;;;;;;;5.68;1.85;;;;;;;;;;5073129;28;21375;-68
2021/04/24 09:20:20;;;;;;;5.28;1.80;;;;;;;;;;5072710;28;20461;-68
2021/04/24 09:22:59;;;;;;;5.20;1.80;;;;;;;;;;5073365;28;20029;-69
2021/04/24 09:25:29;;;;;;;5.13;1.90;;;;;;;;;;5071982;28;20097;-68
2021/04/24 09:27:54;;;;;;;9.80;1.73;;;;;;;;;;5073085;28;20035;-69
2021/04/24 09:30:21;;;;;;;5.43;2.20;;;;;;;;;;5070904;28;20024;-68
2021/04/24 09:32:47;;;;;;;6.57;2.20;;;;;;;;;;5073020;28;20103;-68
2021/04/24 09:35:21;;;;;;;5.43;1.93;;;;;;;;;;5070068;28;20460;-69
2021/04/24 09:38:04;;;;;;;5.43;2.40;;;;;;;;;;5064662;28;20032;-69
2021/04/24 09:40:29;;;;;;;6.53;2.07;;;;;;;;;;5071428;28;20020;-69
2021/04/24 09:42:59;;;;;;;5.63;1.90;;;;;;;;;;5073331;28;20074;-69
2021/04/24 09:45:26;;;;;;;6.10;1.00;;;;;;;;;;5055443;28;20078;-69
2021/04/24 09:47:52;;;;;;;3.33;0.90;;;;;;;;;;5071959;28;20020;-69
2021/04/24 09:50:19;;;;;;;10.43;1.50;;;;;;;;;;5069390;28;20082;-69
2021/04/24 09:52:45;;;;;;;4.78;1.25;;;;;;;;;;5066851;28;20021;-69
2021/04/24 09:55:31;;;;;;;6.63;2.00;;;;;;;;;;5070296;28;20024;-69
2021/04/24 09:57:56;;;;;;;4.50;1.50;;;;;;;;;;5046594;28;20032;-69
2021/04/24 10:00:21;;;;;;;8.50;1.90;;;;;;;;;;5068831;28;20083;-68
2021/04/24 10:02:46;;;;;;;5.70;1.70;;;;;;;;;;5068441;28;20504;-68
2021/04/24 10:05:14;;;;;;;8.53;1.50;;;;;;;;;;5071307;28;20496;-68
2021/04/24 10:07:40;;;;;;;4.57;1.30;;;;;;;;;;5071820;28;20023;-68
2021/04/24 10:10:07;;;;;;;5.10;1.73;;;;;;;;;;5071907;28;20013;-68
2021/04/24 10:12:32;;;;;;;3.70;1.30;;;;;;;;;;5071965;28;20023;-69
2021/04/24 10:14:57;;;;;;;5.23;1.63;;;;;;;;;;5071106;28;20024;-69
2021/04/24 10:17:24;;;;;;;5.40;1.55;;;;;;;;;;5069035;28;20107;-68
2021/04/24 10:19:49;;;;;;;5.87;1.73;;;;;;;;;;5072402;28;20121;-68
2021/04/24 10:22:22;;;;;;;4.83;1.50;;;;;;;;;;5069861;28;20063;-68
2021/04/24 10:24:48;;;;;;;9.03;1.93;;;;;;;;;;5071800;28;20036;-68
2021/04/24 10:27:14;;;;;;;6.10;1.50;;;;;;;;;;5071239;28;20031;-68
2021/04/24 10:29:41;;;;;;;4.80;1.03;;;;;;;;;;5072373;28;20104;-69
2021/04/24 10:32:06;;;;;;;7.10;1.43;;;;;;;;;;5071828;28;20537;-69
2021/04/24 10:34:32;;;;;;;4.57;1.70;;;;;;;;;;5072054;28;20036;-69
2021/04/24 10:36:57;;;;;;;9.20;1.23;;;;;;;;;;5064755;28;20117;-69
2021/04/24 10:39:27;;;;;;;4.38;1.40;;;;;;;;;;5072437;28;20024;-68
2021/04/24 10:42:01;;;;;;;6.05;1.50;;;;;;;;;;5067056;28;20024;-68
2021/04/24 10:44:43;;;;;;;5.80;1.60;;;;;;;;;;5072312;28;20025;-68
2021/04/24 10:47:08;;;;;;;7.35;1.50;;;;;;;;;;5068404;28;20021;-68
2021/04/24 10:49:34;;;;;;;7.63;1.40;;;;;;;;;;5072094;28;20427;-68
2021/04/24 10:52:18;;;;;;;4.97;1.30;;;;;;;;;;5066031;28;20028;-68
2021/04/24 10:54:43;;;;;;;9.60;1.80;;;;;;;;;;5072271;28;20486;-69
2021/04/24 10:57:27;;;;;;;4.72;1.50;;;;;;;;;;5064383;28;20024;-69
2021/04/24 10:59:54;;;;;;;5.07;1.38;;;;;;;;;;5071469;28;20024;-69
2021/04/24 11:02:19;;;;;;;3.63;1.48;;;;;;;;;;5064888;28;20544;-68
2021/04/24 11:04:45;;;;;;;7.18;1.40;;;;;;;;;;5070855;28;20107;-68
2021/04/24 11:07:27;;;;;;;5.45;1.40;;;;;;;;;;5068406;28;20021;-69
2021/04/24 11:10:11;;;;;;;5.70;1.52;;;;;;;;;;5059974;28;20028;-68
2021/04/24 11:12:46;;;;;;;5.82;1.13;;;;;;;;;;5069634;28;20040;-68
2021/04/24 11:15:14;;;;;;;3.53;1.15;;;;;;;;;;5069217;28;20513;-68
2021/04/24 11:17:39;;;;;;;6.13;1.50;;;;;;;;;;5071182;28;20059;-68
2021/04/24 11:20:06;;;;;;;5.68;1.42;;;;;;;;;;5074387;28;20437;-68
2021/04/24 11:22:35;;;;;;;4.20;1.35;;;;;;;;;;5075482;28;20032;-68
2021/04/24 11:25:16;;;;;;;3.35;1.30;;;;;;;;;;5074780;28;20043;-68
2021/04/24 11:27:59;;;;;;;7.25;1.38;;;;;;;;;;5064053;28;20453;-68
2021/04/24 11:30:43;;;;;;;3.35;1.45;;;;;;;;;;5070965;28;20112;-68
2021/04/24 11:33:27;;;;;;;4.13;1.20;;;;;;;;;;5068991;28;20032;-68
2021/04/24 11:36:10;;;;;;;7.43;1.40;;;;;;;;;;5067553;28;20489;-68
2021/04/24 11:38:57;;;;;;;4.13;1.13;;;;;;;;;;5074354;28;20103;-68
2021/04/24 11:41:38;;;;;;;4.27;1.10;;;;;;;;;;5056640;28;20051;-68
2021/04/24 11:44:09;;;;;;;5.23;1.20;;;;;;;;;;5075304;28;20017;-68
2021/04/24 11:46:38;;;;;;;6.90;1.60;;;;;;;;;;5073483;28;20111;-68
2021/04/24 11:49:05;;;;;;;4.83;1.43;;;;;;;;;;5074686;28;20362;-68
2021/04/24 11:51:36;;;;;;;4.33;1.47;;;;;;;;;;5074288;28;20044;-68
2021/04/24 11:54:02;;;;;;;3.97;1.10;;;;;;;;;;5075350;28;20031;-68
2021/04/24 11:56:28;;;;;;;5.20;1.70;;;;;;;;;;5071200;28;20016;-68
2021/04/24 11:58:54;;;;;;;4.90;1.20;;;;;;;;;;5074568;28;20032;-68
2021/04/24 12:01:26;;;;;;;7.18;1.00;;;;;;;;;;5071742;28;20515;-68
2021/04/24 12:03:51;;;;;;;;;;;;;;;;;;5074084;28;20048;-68
2021/04/24 12:06:35;;;;;;;6.52;1.36;;;;;;;;;;5070600;28;19952;-68
2021/04/24 12:09:02;;;;;;;4.10;1.25;;;;;;;;;;5069434;28;20376;-68
2021/04/24 12:11:28;;;;;;;5.70;1.10;;;;;;;;;;5074254;28;20040;-68
2021/04/24 12:13:53;;;;;;;5.07;1.02;;;;;;;;;;5075465;28;20024;-68
2021/04/24 12:16:18;;;;;;;4.18;1.00;;;;;;;;;;5074679;28;20095;-68
2021/04/24 12:18:43;;;;;;;6.80;1.40;;;;;;;;;;5074950;28;20059;-68
2021/04/24 12:21:09;;;;;;;4.97;1.50;;;;;;;;;;5071010;28;20029;-68
2021/04/24 12:23:34;;;;;;;3.70;1.10;;;;;;;;;;5074814;28;20147;-68
2021/04/24 12:25:59;;;;;;;4.33;1.00;;;;;;;;;;5072649;28;20039;-68
2021/04/24 12:28:26;;;;;;;5.77;1.10;;;;;;;;;;5074688;28;20487;-68
2021/04/24 12:30:53;;;;;;;2.03;0.70;;;;;;;;;;5072200;28;20078;-68
2021/04/24 12:33:19;;;;;;;3.28;1.13;;;;;;;;;;5074793;28;20021;-68
2021/04/24 12:35:47;;;;;;;3.20;0.88;;;;;;;;;;5067562;28;20115;-68
2021/04/24 12:38:22;;;;;;;4.57;1.00;;;;;;;;;;5068786;28;20028;-68
2021/04/24 12:40:57;;;;;;;3.03;0.75;;;;;;;;;;5066606;28;20044;-68
2021/04/24 12:43:30;;;;;;;4.70;1.08;;;;;;;;;;5070656;28;20105;-68
2021/04/24 12:46:00;;;;;;;4.25;0.80;;;;;;;;;;5065642;28;20452;-68
2021/04/24 12:48:34;;;;;;;3.30;0.98;;;;;;;;;;5073083;28;20032;-69
2021/04/24 12:50:59;;;;;;;3.97;1.05;;;;;;;;;;5064305;28;20111;-68
2021/04/24 12:53:37;;;;;;;2.38;0.80;;;;;;;;;;5073105;28;20063;-68
2021/04/24 12:56:07;;;;;;;3.83;0.70;;;;;;;;;;5067332;28;20389;-68
2021/04/24 12:58:36;;;;;;;2.63;0.90;;;;;;;;;;5074690;28;20025;-68
2021/04/24 13:01:08;;;;;;;2.33;0.90;;;;;;;;;;5071650;28;20087;-68
2021/04/24 13:03:34;;;;;;;4.55;1.00;;;;;;;;;;5070066;28;20041;-68
2021/04/24 13:06:10;;;;;;;2.65;0.90;;;;;;;;;;5068812;28;20040;-68
2021/04/24 13:08:35;;;;;;;2.85;0.63;;;;;;;;;;5064943;28;20683;-68
2021/04/24 13:11:05;;;;;;;2.90;0.80;;;;;;;;;;5063637;28;20020;-68
2021/04/24 13:13:30;;;;;;;3.90;0.88;;;;;;;;;;5066118;28;20107;-68
2021/04/24 13:15:55;;;;;;;2.97;0.80;;;;;;;;;;5065501;28;20527;-68
2021/04/24 13:18:41;;;;;;;2.35;0.77;;;;;;;;;;5064445;28;20043;-68
2021/04/24 13:21:26;;;;;;;2.88;0.70;;;;;;;;;;5065736;28;20401;-68
2021/04/24 13:24:17;;;;;;;3.88;0.80;;;;;;;;;;5067677;28;20570;-68
2021/04/24 13:26:56;;;;;;;2.70;0.98;;;;;;;;;;5062135;28;20040;-68
2021/04/24 13:29:33;;;;;;;3.17;1.08;;;;;;;;;;5066490;28;20021;-68
2021/04/24 13:31:59;;;;;;;3.15;0.75;;;;;;;;;;5064754;28;20033;-68
2021/04/24 13:34:24;;;;;;;4.85;0.85;;;;;;;;;;5068117;28;20527;-68
2021/04/24 13:37:11;;;;;;;3.30;0.90;;;;;;;;;;5066690;28;20380;-68
2021/04/24 13:39:44;;;;;;;2.28;0.57;;;;;;;;;;5066752;28;20074;-68
2021/04/24 13:42:19;;;;;;;1.65;0.52;;;;;;;;;;5060112;28;20524;-68
2021/04/24 13:44:45;;;;;;;1.33;0.55;;;;;;;;;;5068419;28;20115;-68
2021/04/24 13:47:18;;;;;;;2.70;0.65;;;;;;;;;;5067437;28;20020;-68
2021/04/24 13:49:43;;;;;;;2.33;0.77;;;;;;;;;;5064942;28;20058;-68
2021/04/24 13:52:08;;;;;;;1.38;0.50;;;;;;;;;;5066700;28;20434;-68
2021/04/24 13:54:34;;;;;;;1.90;0.70;;;;;;;;;;5064713;28;20052;-68
2021/04/24 13:56:59;;;;;;;4.70;1.00;;;;;;;;;;5068329;28;20036;-68
2021/04/24 13:59:24;;;;;;;3.97;0.85;;;;;;;;;;5067522;28;20033;-68
2021/04/24 14:01:50;;;;;;;5.10;0.60;;;;;;;;;;5066102;28;20069;-68
2021/04/24 14:04:15;;;;;;;3.28;0.90;;;;;;;;;;5064217;28;20031;-68
2021/04/24 14:06:41;;;;;;;2.78;1.00;;;;;;;;;;5064754;28;20028;-68
2021/04/24 14:09:07;;;;;;;3.92;0.85;;;;;;;;;;5064911;28;20044;-68
2021/04/24 14:11:33;;;;;;;2.40;0.68;;;;;;;;;;5060676;28;20123;-68
2021/04/24 14:13:59;;;;;;;5.50;0.70;;;;;;;;;;5068774;28;20103;-68
2021/04/24 14:16:24;;;;;;;3.50;0.70;;;;;;;;;;5065008;28;20051;-68
2021/04/24 14:18:49;;;;;;;2.35;0.68;;;;;;;;;;5068208;28;20028;-68
2021/04/24 14:21:15;;;;;;;1.98;0.65;;;;;;;;;;5066172;28;20029;-68
2021/04/24 14:23:40;;;;;;;3.60;1.08;;;;;;;;;;5067115;28;20380;-68
2021/04/24 14:26:05;;;;;;;1.75;0.52;;;;;;;;;;5067620;28;20052;-68
2021/04/24 14:28:31;;;;;;;2.42;0.90;;;;;;;;;;5067547;28;20032;-68
2021/04/24 14:30:56;;;;;;;2.80;0.83;;;;;;;;;;5066663;28;20472;-68
2021/04/24 14:33:21;;;;;;;8.23;1.20;;;;;;;;;;5068928;28;20051;-68
2021/04/24 14:35:47;;;;;;;3.97;0.60;;;;;;;;;;5067294;28;20028;-67
2021/04/24 14:38:12;;;;;;;3.40;0.73;;;;;;;;;;5064015;28;20032;-67